Timber Mountain, Nevada Weather observations

Data are for 10 minute period ending at time listed.
 Day   Time   Solar   Ave.   Ave.  Ave.  Vector  Max.   Baro.   Total    
  of    of     Rad.   Air    Rel.  Wind   Wind   Wind  Press.  Precip.   
Year   Day            Temp.  Hum.  Speed  Dir.   Gust                    
2014   (PST)  Kw/m2    F      %     mph   deg.    mph    mb.     in.     
-------------------------------------------------------------------------
 272   20:00   0.00   50.0    47    2.7   107     5.9   811.7    0.00 
 272   21:00   0.00   50.6    47    2.0    42     5.6   812.0    0.00 
 272   22:00   0.00   51.2    46    2.1     1     8.0   812.2    0.00 
 272   23:00   0.00   49.8    50    1.7    70     5.0   812.1    0.00 
 273    0:00   0.00   48.1    55    0.9   262     3.1   811.7    0.00 
 273    1:00   0.00   46.1    59    1.8   124     3.7   811.8    0.00 
 273    2:00   0.00   45.5    61    2.7    99     4.5   811.5    0.00 
 273    3:00   0.00   45.8    61    3.4   100     6.0   811.0    0.00 
 273    4:00   0.00   46.3    60    4.9    87     7.7   810.6    0.00 
 273    5:00   0.00   44.6    63    4.3   104     7.7   810.5    0.00 
 273    6:00   0.01   44.1    64    3.8   109     6.5   810.7    0.00 
 273    7:00   0.10   49.2    55    2.7   110     4.2   811.1    0.00 
 273    8:00   0.35   61.8    34    2.0   192     4.3   811.2    0.00 
 273    9:00   0.54   63.4    32    4.5   261    11.2   811.3    0.00 
 273   10:00   0.69   64.3    32    5.9   263    14.8   811.0    0.00 
 273   11:00   0.80   65.4    29    7.6   261    15.7   810.6    0.00 
 273   12:00   0.85   66.6    26    7.1   262    15.0   810.1    0.00 
 273   13:00   0.82   68.5    23    7.4   272    14.5   809.5    0.00 
 273   14:00   0.74   68.8    21    7.8   270    18.2   808.8    0.00 
 273   15:00   0.59   69.3    20    7.6   267    17.4   808.3    0.00 
 273   16:00   0.40   68.3    20    6.3   246    14.5   807.9    0.00 
 273   17:00   0.19   66.5    24    8.1   246    14.5   807.7    0.00 
 273   18:00   0.02   61.9    29    7.4   229    14.2   807.6    0.00 
 273   19:00   0.00   59.3    31    6.6   230    12.8   807.8    0.00 

Return to Timber Mountain graphs page.


Western Regional Climate Center,wrcc@dri.edu